sensor_id;sensor_type;location;lat;lon;timestamp;pressure;altitude;pressure_sealevel;temperature;humidity
24390;BME280;12510;56.468;-3.004;2023-05-25T00:01:35;102080.94;;;15.64;100.00
24390;BME280;12510;56.468;-3.004;2023-05-25T00:04:02;102084.75;;;15.71;100.00
24390;BME280;12510;56.468;-3.004;2023-05-25T00:06:30;102079.13;;;16.05;100.00
24390;BME280;12510;56.468;-3.004;2023-05-25T00:08:56;102081.91;;;16.04;100.00
24390;BME280;12510;56.468;-3.004;2023-05-25T00:11:23;102082.50;;;16.07;100.00
24390;BME280;12510;56.468;-3.004;2023-05-25T00:13:50;102078.56;;;15.71;100.00
24390;BME280;12510;56.468;-3.004;2023-05-25T00:16:16;102080.06;;;15.85;100.00
24390;BME280;12510;56.468;-3.004;2023-05-25T00:18:43;102082.59;;;15.55;100.00
24390;BME280;12510;56.468;-3.004;2023-05-25T00:21:10;102094.63;;;15.59;100.00
24390;BME280;12510;56.468;-3.004;2023-05-25T00:23:37;102097.78;;;15.53;100.00
24390;BME280;12510;56.468;-3.004;2023-05-25T00:26:03;102102.81;;;15.56;100.00
24390;BME280;12510;56.468;-3.004;2023-05-25T00:28:30;102102.94;;;15.45;100.00
24390;BME280;12510;56.468;-3.004;2023-05-25T00:30:56;102103.72;;;15.15;100.00
24390;BME280;12510;56.468;-3.004;2023-05-25T00:33:22;102096.03;;;15.64;100.00
24390;BME280;12510;56.468;-3.004;2023-05-25T00:35:49;102101.47;;;15.62;100.00
24390;BME280;12510;56.468;-3.004;2023-05-25T00:38:16;102100.41;;;15.44;100.00
24390;BME280;12510;56.468;-3.004;2023-05-25T00:40:44;102102.59;;;15.07;100.00
24390;BME280;12510;56.468;-3.004;2023-05-25T00:43:12;102096.47;;;15.38;100.00
24390;BME280;12510;56.468;-3.004;2023-05-25T00:45:40;102105.56;;;15.14;100.00
24390;BME280;12510;56.468;-3.004;2023-05-25T00:48:07;102106.34;;;15.26;100.00
24390;BME280;12510;56.468;-3.004;2023-05-25T00:50:37;102098.41;;;15.36;100.00
24390;BME280;12510;56.468;-3.004;2023-05-25T00:53:05;102107.56;;;15.22;100.00
24390;BME280;12510;56.468;-3.004;2023-05-25T00:55:35;102103.19;;;15.11;100.00
24390;BME280;12510;56.468;-3.004;2023-05-25T00:58:03;102107.25;;;15.15;100.00
24390;BME280;12510;56.468;-3.004;2023-05-25T01:00:33;102108.59;;;14.88;100.00
24390;BME280;12510;56.468;-3.004;2023-05-25T01:03:11;102109.25;;;15.02;100.00
24390;BME280;12510;56.468;-3.004;2023-05-25T01:05:44;102107.25;;;14.94;100.00
24390;BME280;12510;56.468;-3.004;2023-05-25T01:08:13;102106.50;;;14.92;100.00
24390;BME280;12510;56.468;-3.004;2023-05-25T01:10:42;102109.94;;;14.83;100.00
24390;BME280;12510;56.468;-3.004;2023-05-25T01:13:12;102110.09;;;15.02;100.00
24390;BME280;12510;56.468;-3.004;2023-05-25T01:15:40;102102.19;;;14.91;100.00
24390;BME280;12510;56.468;-3.004;2023-05-25T01:18:06;102115.63;;;14.78;100.00
24390;BME280;12510;56.468;-3.004;2023-05-25T01:20:34;102117.50;;;14.66;100.00
24390;BME280;12510;56.468;-3.004;2023-05-25T01:23:12;102120.44;;;14.84;100.00
24390;BME280;12510;56.468;-3.004;2023-05-25T01:25:44;102127.53;;;14.84;100.00
24390;BME280;12510;56.468;-3.004;2023-05-25T01:28:28;102127.22;;;14.98;100.00
24390;BME280;12510;56.468;-3.004;2023-05-25T01:30:56;102126.06;;;14.91;100.00
24390;BME280;12510;56.468;-3.004;2023-05-25T01:33:24;102126.19;;;14.68;100.00
24390;BME280;12510;56.468;-3.004;2023-05-25T01:35:51;102129.28;;;14.73;100.00
24390;BME280;12510;56.468;-3.004;2023-05-25T01:38:18;102126.91;;;14.59;100.00
24390;BME280;12510;56.468;-3.004;2023-05-25T01:40:44;102129.22;;;14.85;100.00
24390;BME280;12510;56.468;-3.004;2023-05-25T01:43:11;102131.25;;;14.93;100.00
24390;BME280;12510;56.468;-3.004;2023-05-25T01:45:37;102140.84;;;14.61;100.00
24390;BME280;12510;56.468;-3.004;2023-05-25T01:48:27;102141.53;;;14.86;100.00
24390;BME280;12510;56.468;-3.004;2023-05-25T01:51:01;102135.94;;;14.56;100.00
24390;BME280;12510;56.468;-3.004;2023-05-25T01:53:34;102138.22;;;14.72;100.00
24390;BME280;12510;56.468;-3.004;2023-05-25T01:56:05;102139.06;;;14.94;100.00
24390;BME280;12510;56.468;-3.004;2023-05-25T01:58:39;102142.41;;;14.96;100.00
24390;BME280;12510;56.468;-3.004;2023-05-25T02:01:08;102137.84;;;14.98;100.00
24390;BME280;12510;56.468;-3.004;2023-05-25T02:03:46;102141.06;;;14.81;100.00
24390;BME280;12510;56.468;-3.004;2023-05-25T02:06:15;102148.00;;;14.93;100.00
24390;BME280;12510;56.468;-3.004;2023-05-25T02:08:41;102153.16;;;14.73;100.00
24390;BME280;12510;56.468;-3.004;2023-05-25T02:11:11;102140.13;;;14.70;100.00
24390;BME280;12510;56.468;-3.004;2023-05-25T02:13:38;102146.28;;;14.71;100.00
24390;BME280;12510;56.468;-3.004;2023-05-25T02:16:04;102140.34;;;14.79;100.00
24390;BME280;12510;56.468;-3.004;2023-05-25T02:18:31;102153.72;;;14.77;100.00
24390;BME280;12510;56.468;-3.004;2023-05-25T02:20:57;102152.53;;;14.58;100.00
24390;BME280;12510;56.468;-3.004;2023-05-25T02:23:24;102142.22;;;14.88;100.00
24390;BME280;12510;56.468;-3.004;2023-05-25T02:25:51;102142.09;;;14.68;100.00
24390;BME280;12510;56.468;-3.004;2023-05-25T02:28:18;102145.41;;;14.82;100.00
24390;BME280;12510;56.468;-3.004;2023-05-25T02:30:45;102150.88;;;14.69;100.00
24390;BME280;12510;56.468;-3.004;2023-05-25T02:33:11;102144.59;;;14.70;100.00
24390;BME280;12510;56.468;-3.004;2023-05-25T02:35:39;102143.63;;;14.59;100.00
24390;BME280;12510;56.468;-3.004;2023-05-25T02:38:07;102146.38;;;14.81;100.00
24390;BME280;12510;56.468;-3.004;2023-05-25T02:40:33;102145.44;;;14.70;100.00
24390;BME280;12510;56.468;-3.004;2023-05-25T02:43:00;102153.06;;;14.52;100.00
24390;BME280;12510;56.468;-3.004;2023-05-25T02:45:26;102156.94;;;14.48;100.00
24390;BME280;12510;56.468;-3.004;2023-05-25T02:47:53;102150.56;;;14.39;100.00
24390;BME280;12510;56.468;-3.004;2023-05-25T02:50:21;102154.44;;;14.35;100.00
24390;BME280;12510;56.468;-3.004;2023-05-25T02:52:51;102148.00;;;14.49;100.00
24390;BME280;12510;56.468;-3.004;2023-05-25T02:55:17;102147.66;;;14.42;100.00
24390;BME280;12510;56.468;-3.004;2023-05-25T02:57:44;102146.13;;;14.29;100.00
24390;BME280;12510;56.468;-3.004;2023-05-25T03:00:21;102156.25;;;14.23;100.00
24390;BME280;12510;56.468;-3.004;2023-05-25T03:02:47;102155.63;;;14.31;100.00
24390;BME280;12510;56.468;-3.004;2023-05-25T03:05:17;102159.06;;;14.11;100.00
24390;BME280;12510;56.468;-3.004;2023-05-25T03:07:44;102162.66;;;14.10;100.00
24390;BME280;12510;56.468;-3.004;2023-05-25T03:10:10;102166.66;;;14.04;100.00
24390;BME280;12510;56.468;-3.004;2023-05-25T03:12:37;102165.31;;;13.98;100.00
24390;BME280;12510;56.468;-3.004;2023-05-25T03:15:04;102170.38;;;13.90;100.00
24390;BME280;12510;56.468;-3.004;2023-05-25T03:17:30;102166.28;;;13.86;100.00
24390;BME280;12510;56.468;-3.004;2023-05-25T03:19:57;102165.44;;;13.85;100.00
24390;BME280;12510;56.468;-3.004;2023-05-25T03:22:25;102167.25;;;13.73;100.00
24390;BME280;12510;56.468;-3.004;2023-05-25T03:24:52;102171.81;;;13.60;100.00
24390;BME280;12510;56.468;-3.004;2023-05-25T03:27:18;102170.34;;;13.56;100.00
24390;BME280;12510;56.468;-3.004;2023-05-25T03:29:47;102167.94;;;13.75;100.00
24390;BME280;12510;56.468;-3.004;2023-05-25T03:32:15;102165.66;;;13.82;100.00
24390;BME280;12510;56.468;-3.004;2023-05-25T03:34:41;102161.22;;;14.05;100.00
24390;BME280;12510;56.468;-3.004;2023-05-25T03:37:10;102159.06;;;13.88;100.00
24390;BME280;12510;56.468;-3.004;2023-05-25T03:39:37;102157.59;;;13.95;100.00
24390;BME280;12510;56.468;-3.004;2023-05-25T03:42:03;102163.88;;;13.83;100.00
24390;BME280;12510;56.468;-3.004;2023-05-25T03:44:31;102167.59;;;13.80;100.00
24390;BME280;12510;56.468;-3.004;2023-05-25T03:46:58;102160.63;;;13.79;100.00
24390;BME280;12510;56.468;-3.004;2023-05-25T03:49:24;102163.38;;;13.78;100.00
24390;BME280;12510;56.468;-3.004;2023-05-25T03:51:51;102163.72;;;13.96;100.00
24390;BME280;12510;56.468;-3.004;2023-05-25T03:54:17;102161.81;;;13.98;100.00
24390;BME280;12510;56.468;-3.004;2023-05-25T03:56:44;102163.75;;;13.84;100.00
24390;BME280;12510;56.468;-3.004;2023-05-25T03:59:10;102162.16;;;14.16;100.00
24390;BME280;12510;56.468;-3.004;2023-05-25T04:01:37;102170.25;;;14.03;100.00
24390;BME280;12510;56.468;-3.004;2023-05-25T04:04:05;102167.09;;;14.09;100.00
24390;BME280;12510;56.468;-3.004;2023-05-25T04:06:31;102171.91;;;14.15;100.00
24390;BME280;12510;56.468;-3.004;2023-05-25T04:08:59;102170.34;;;14.13;100.00
24390;BME280;12510;56.468;-3.004;2023-05-25T04:11:26;102170.50;;;14.00;100.00
24390;BME280;12510;56.468;-3.004;2023-05-25T04:13:54;102176.13;;;14.18;100.00
24390;BME280;12510;56.468;-3.004;2023-05-25T04:16:22;102173.72;;;14.26;100.00
24390;BME280;12510;56.468;-3.004;2023-05-25T04:18:51;102170.06;;;14.38;100.00
24390;BME280;12510;56.468;-3.004;2023-05-25T04:21:19;102180.47;;;14.19;100.00
24390;BME280;12510;56.468;-3.004;2023-05-25T04:23:45;102183.06;;;14.53;100.00
24390;BME280;12510;56.468;-3.004;2023-05-25T04:26:12;102184.03;;;14.52;100.00
24390;BME280;12510;56.468;-3.004;2023-05-25T04:28:43;102194.41;;;14.55;100.00
24390;BME280;12510;56.468;-3.004;2023-05-25T04:31:27;102203.69;;;14.38;100.00
24390;BME280;12510;56.468;-3.004;2023-05-25T04:34:13;102198.47;;;14.70;100.00
24390;BME280;12510;56.468;-3.004;2023-05-25T04:36:44;102203.88;;;14.80;100.00
24390;BME280;12510;56.468;-3.004;2023-05-25T04:39:14;102205.84;;;14.67;100.00
24390;BME280;12510;56.468;-3.004;2023-05-25T04:41:45;102199.44;;;14.58;100.00
24390;BME280;12510;56.468;-3.004;2023-05-25T04:44:13;102201.47;;;14.77;100.00
24390;BME280;12510;56.468;-3.004;2023-05-25T04:46:46;102214.88;;;14.64;100.00
24390;BME280;12510;56.468;-3.004;2023-05-25T04:49:18;102225.66;;;14.95;100.00
24390;BME280;12510;56.468;-3.004;2023-05-25T04:51:44;102214.53;;;15.22;100.00
24390;BME280;12510;56.468;-3.004;2023-05-25T04:54:11;102218.00;;;15.55;100.00
24390;BME280;12510;56.468;-3.004;2023-05-25T04:56:38;102220.78;;;15.33;100.00
24390;BME280;12510;56.468;-3.004;2023-05-25T04:59:04;102223.88;;;15.80;100.00
24390;BME280;12510;56.468;-3.004;2023-05-25T05:01:31;102223.63;;;16.14;100.00
24390;BME280;12510;56.468;-3.004;2023-05-25T05:04:02;102223.38;;;16.78;100.00
24390;BME280;12510;56.468;-3.004;2023-05-25T05:06:28;102216.34;;;16.57;100.00
24390;BME280;12510;56.468;-3.004;2023-05-25T05:08:55;102218.91;;;16.88;100.00
24390;BME280;12510;56.468;-3.004;2023-05-25T05:11:21;102229.50;;;16.78;100.00
24390;BME280;12510;56.468;-3.004;2023-05-25T05:13:49;102230.13;;;17.21;100.00
24390;BME280;12510;56.468;-3.004;2023-05-25T05:16:16;102220.31;;;17.12;100.00
24390;BME280;12510;56.468;-3.004;2023-05-25T05:18:42;102223.38;;;17.26;100.00
24390;BME280;12510;56.468;-3.004;2023-05-25T05:21:09;102219.72;;;16.79;100.00
24390;BME280;12510;56.468;-3.004;2023-05-25T05:23:36;102231.34;;;16.87;100.00
24390;BME280;12510;56.468;-3.004;2023-05-25T05:26:02;102224.94;;;17.19;100.00
24390;BME280;12510;56.468;-3.004;2023-05-25T05:28:30;102216.69;;;17.32;100.00
24390;BME280;12510;56.468;-3.004;2023-05-25T05:30:57;102219.13;;;17.53;100.00
24390;BME280;12510;56.468;-3.004;2023-05-25T05:33:24;102220.88;;;17.15;100.00
24390;BME280;12510;56.468;-3.004;2023-05-25T05:35:51;102227.63;;;17.86;100.00
24390;BME280;12510;56.468;-3.004;2023-05-25T05:38:20;102212.91;;;18.20;100.00
24390;BME280;12510;56.468;-3.004;2023-05-25T05:40:47;102215.50;;;17.64;100.00
24390;BME280;12510;56.468;-3.004;2023-05-25T05:43:18;102227.91;;;17.93;100.00
24390;BME280;12510;56.468;-3.004;2023-05-25T05:45:45;102224.66;;;17.99;100.00
24390;BME280;12510;56.468;-3.004;2023-05-25T05:48:11;102229.53;;;18.04;100.00
24390;BME280;12510;56.468;-3.004;2023-05-25T05:50:38;102221.91;;;17.71;100.00
24390;BME280;12510;56.468;-3.004;2023-05-25T05:53:05;102221.66;;;17.65;100.00
24390;BME280;12510;56.468;-3.004;2023-05-25T05:55:32;102223.72;;;17.81;100.00
24390;BME280;12510;56.468;-3.004;2023-05-25T05:57:58;102218.78;;;17.29;100.00
24390;BME280;12510;56.468;-3.004;2023-05-25T06:00:25;102226.47;;;17.22;100.00
24390;BME280;12510;56.468;-3.004;2023-05-25T06:02:52;102224.66;;;17.22;100.00
24390;BME280;12510;56.468;-3.004;2023-05-25T06:05:20;102224.63;;;17.62;100.00
24390;BME280;12510;56.468;-3.004;2023-05-25T06:07:47;102226.44;;;17.51;100.00
24390;BME280;12510;56.468;-3.004;2023-05-25T06:10:15;102230.53;;;17.46;100.00
24390;BME280;12510;56.468;-3.004;2023-05-25T06:12:43;102228.53;;;17.67;100.00
24390;BME280;12510;56.468;-3.004;2023-05-25T06:15:09;102235.88;;;17.26;100.00
24390;BME280;12510;56.468;-3.004;2023-05-25T06:17:38;102229.00;;;17.43;100.00
24390;BME280;12510;56.468;-3.004;2023-05-25T06:20:05;102227.00;;;17.55;100.00
24390;BME280;12510;56.468;-3.004;2023-05-25T06:22:32;102238.13;;;17.88;100.00
24390;BME280;12510;56.468;-3.004;2023-05-25T06:24:59;102243.56;;;17.49;100.00
24390;BME280;12510;56.468;-3.004;2023-05-25T06:27:27;102244.16;;;18.00;100.00
24390;BME280;12510;56.468;-3.004;2023-05-25T06:29:54;102227.88;;;18.31;100.00
24390;BME280;12510;56.468;-3.004;2023-05-25T06:32:20;102235.22;;;18.92;100.00
24390;BME280;12510;56.468;-3.004;2023-05-25T06:34:47;102233.66;;;18.72;100.00
24390;BME280;12510;56.468;-3.004;2023-05-25T06:37:14;102227.16;;;19.02;100.00
24390;BME280;12510;56.468;-3.004;2023-05-25T06:39:40;102229.81;;;18.38;100.00
24390;BME280;12510;56.468;-3.004;2023-05-25T06:42:08;102233.84;;;18.88;100.00
24390;BME280;12510;56.468;-3.004;2023-05-25T06:44:35;102235.16;;;19.02;100.00
24390;BME280;12510;56.468;-3.004;2023-05-25T06:47:01;102232.75;;;19.35;100.00
24390;BME280;12510;56.468;-3.004;2023-05-25T06:49:28;102222.59;;;19.39;99.17
24390;BME280;12510;56.468;-3.004;2023-05-25T06:51:54;102237.94;;;18.83;100.00
24390;BME280;12510;56.468;-3.004;2023-05-25T06:54:21;102238.66;;;18.85;100.00
24390;BME280;12510;56.468;-3.004;2023-05-25T06:56:47;102229.38;;;19.51;100.00
24390;BME280;12510;56.468;-3.004;2023-05-25T06:59:14;102225.44;;;19.90;93.71
24390;BME280;12510;56.468;-3.004;2023-05-25T07:01:40;102219.16;;;19.47;95.14
24390;BME280;12510;56.468;-3.004;2023-05-25T07:04:07;102218.63;;;19.96;94.52
24390;BME280;12510;56.468;-3.004;2023-05-25T07:06:33;102213.88;;;20.16;89.25
24390;BME280;12510;56.468;-3.004;2023-05-25T07:09:00;102218.34;;;20.58;89.83
24390;BME280;12510;56.468;-3.004;2023-05-25T07:11:26;102220.41;;;20.72;89.81
24390;BME280;12510;56.468;-3.004;2023-05-25T07:13:53;102205.41;;;20.29;82.97
24390;BME280;12510;56.468;-3.004;2023-05-25T07:16:19;102211.06;;;20.93;88.85
24390;BME280;12510;56.468;-3.004;2023-05-25T07:18:45;102220.59;;;21.37;89.95
24390;BME280;12510;56.468;-3.004;2023-05-25T07:21:12;102197.66;;;21.26;80.56
24390;BME280;12510;56.468;-3.004;2023-05-25T07:23:39;102208.03;;;20.88;83.39
24390;BME280;12510;56.468;-3.004;2023-05-25T07:26:06;102208.13;;;20.53;80.62
24390;BME280;12510;56.468;-3.004;2023-05-25T07:28:33;102214.06;;;20.22;82.90
24390;BME280;12510;56.468;-3.004;2023-05-25T07:31:00;102231.72;;;19.10;88.63
24390;BME280;12510;56.468;-3.004;2023-05-25T07:33:26;102225.28;;;20.26;87.42
24390;BME280;12510;56.468;-3.004;2023-05-25T07:35:52;102221.69;;;19.74;88.03
24390;BME280;12510;56.468;-3.004;2023-05-25T07:38:19;102233.13;;;20.27;87.54
24390;BME280;12510;56.468;-3.004;2023-05-25T07:40:45;102233.06;;;20.03;87.03
24390;BME280;12510;56.468;-3.004;2023-05-25T07:43:14;102229.69;;;20.43;89.58
24390;BME280;12510;56.468;-3.004;2023-05-25T07:45:40;102232.09;;;20.63;86.32
24390;BME280;12510;56.468;-3.004;2023-05-25T07:48:07;102226.44;;;20.23;85.39
24390;BME280;12510;56.468;-3.004;2023-05-25T07:50:34;102220.59;;;20.96;89.77
24390;BME280;12510;56.468;-3.004;2023-05-25T07:53:00;102221.44;;;20.80;86.97
24390;BME280;12510;56.468;-3.004;2023-05-25T07:55:27;102226.19;;;20.00;88.44
24390;BME280;12510;56.468;-3.004;2023-05-25T07:57:53;102233.72;;;19.08;94.74
24390;BME280;12510;56.468;-3.004;2023-05-25T08:00:20;102233.50;;;19.98;91.28
24390;BME280;12510;56.468;-3.004;2023-05-25T08:02:47;102228.63;;;20.28;86.01
24390;BME280;12510;56.468;-3.004;2023-05-25T08:05:14;102238.94;;;20.15;85.04
24390;BME280;12510;56.468;-3.004;2023-05-25T08:07:41;102248.41;;;19.74;86.45
24390;BME280;12510;56.468;-3.004;2023-05-25T08:10:08;102249.03;;;20.29;86.34
24390;BME280;12510;56.468;-3.004;2023-05-25T08:12:34;102236.00;;;21.26;81.62
24390;BME280;12510;56.468;-3.004;2023-05-25T08:15:01;102239.19;;;21.38;83.59
24390;BME280;12510;56.468;-3.004;2023-05-25T08:17:30;102231.16;;;21.30;83.80
24390;BME280;12510;56.468;-3.004;2023-05-25T08:19:56;102229.03;;;22.69;80.64
24390;BME280;12510;56.468;-3.004;2023-05-25T08:22:22;102212.88;;;22.15;75.88
24390;BME280;12510;56.468;-3.004;2023-05-25T08:24:49;102226.34;;;22.38;76.14
24390;BME280;12510;56.468;-3.004;2023-05-25T08:27:16;102226.59;;;22.20;75.68
24390;BME280;12510;56.468;-3.004;2023-05-25T08:29:43;102215.31;;;23.64;73.64
24390;BME280;12510;56.468;-3.004;2023-05-25T08:32:09;102202.56;;;24.54;63.57
24390;BME280;12510;56.468;-3.004;2023-05-25T08:34:36;102203.03;;;23.08;65.51
24390;BME280;12510;56.468;-3.004;2023-05-25T08:37:02;102206.38;;;22.72;66.90
24390;BME280;12510;56.468;-3.004;2023-05-25T08:39:29;102233.66;;;21.65;77.41
24390;BME280;12510;56.468;-3.004;2023-05-25T08:41:55;102227.53;;;22.35;73.64
24390;BME280;12510;56.468;-3.004;2023-05-25T08:44:22;102212.31;;;23.05;69.04
24390;BME280;12510;56.468;-3.004;2023-05-25T08:46:48;102214.19;;;22.82;69.14
24390;BME280;12510;56.468;-3.004;2023-05-25T08:49:15;102207.75;;;23.29;65.29
24390;BME280;12510;56.468;-3.004;2023-05-25T08:51:53;102228.50;;;22.74;71.54
24390;BME280;12510;56.468;-3.004;2023-05-25T08:54:31;102232.78;;;22.60;73.71
24390;BME280;12510;56.468;-3.004;2023-05-25T08:57:48;102229.84;;;22.93;71.88
24390;BME280;12510;56.468;-3.004;2023-05-25T09:05:13;102228.22;;;22.29;71.05
24390;BME280;12510;56.468;-3.004;2023-05-25T09:07:42;102207.22;;;23.34;64.16
24390;BME280;12510;56.468;-3.004;2023-05-25T09:10:13;102218.69;;;23.04;68.57
24390;BME280;12510;56.468;-3.004;2023-05-25T09:12:40;102209.19;;;23.70;65.32
24390;BME280;12510;56.468;-3.004;2023-05-25T09:15:09;102210.59;;;23.66;64.54
24390;BME280;12510;56.468;-3.004;2023-05-25T09:17:37;102204.34;;;23.50;64.67
24390;BME280;12510;56.468;-3.004;2023-05-25T09:20:05;102195.56;;;23.71;60.94
24390;BME280;12510;56.468;-3.004;2023-05-25T09:22:31;102196.97;;;25.49;62.18
24390;BME280;12510;56.468;-3.004;2023-05-25T09:24:58;102179.09;;;25.76;53.84
24390;BME280;12510;56.468;-3.004;2023-05-25T09:27:25;102181.03;;;24.54;54.91
24390;BME280;12510;56.468;-3.004;2023-05-25T09:29:52;102211.75;;;24.59;65.96
24390;BME280;12510;56.468;-3.004;2023-05-25T09:32:19;102180.91;;;25.05;57.22
24390;BME280;12510;56.468;-3.004;2023-05-25T09:34:46;102195.03;;;24.27;58.18
24390;BME280;12510;56.468;-3.004;2023-05-25T09:37:14;102212.56;;;22.49;65.99
24390;BME280;12510;56.468;-3.004;2023-05-25T09:39:42;102199.91;;;23.57;64.28
24390;BME280;12510;56.468;-3.004;2023-05-25T09:42:12;102190.34;;;23.40;63.85
24390;BME280;12510;56.468;-3.004;2023-05-25T09:44:39;102200.88;;;24.31;60.84
24390;BME280;12510;56.468;-3.004;2023-05-25T09:47:08;102196.38;;;23.72;66.00
24390;BME280;12510;56.468;-3.004;2023-05-25T09:49:34;102183.75;;;23.57;64.38
24390;BME280;12510;56.468;-3.004;2023-05-25T09:52:01;102159.00;;;25.92;53.81
24390;BME280;12510;56.468;-3.004;2023-05-25T09:54:28;102174.78;;;24.68;57.01
24390;BME280;12510;56.468;-3.004;2023-05-25T09:56:54;102186.81;;;23.69;63.21
24390;BME280;12510;56.468;-3.004;2023-05-25T09:59:21;102205.94;;;25.49;68.63
24390;BME280;12510;56.468;-3.004;2023-05-25T10:01:51;102175.44;;;25.27;56.18
24390;BME280;12510;56.468;-3.004;2023-05-25T10:04:18;102178.41;;;25.67;59.27
24390;BME280;12510;56.468;-3.004;2023-05-25T10:06:46;102177.13;;;25.00;55.16
24390;BME280;12510;56.468;-3.004;2023-05-25T10:09:17;102187.94;;;25.63;62.93
24390;BME280;12510;56.468;-3.004;2023-05-25T10:11:44;102166.53;;;25.55;56.05
24390;BME280;12510;56.468;-3.004;2023-05-25T10:14:13;102148.00;;;26.62;50.01
24390;BME280;12510;56.468;-3.004;2023-05-25T10:16:47;102160.72;;;25.58;52.88
24390;BME280;12510;56.468;-3.004;2023-05-25T10:20:11;102167.88;;;25.37;56.19
24390;BME280;12510;56.468;-3.004;2023-05-25T10:22:51;102178.88;;;24.86;55.89
24390;BME280;12510;56.468;-3.004;2023-05-25T10:28:21;102155.84;;;25.12;51.83
24390;BME280;12510;56.468;-3.004;2023-05-25T10:30:52;102146.72;;;26.38;49.87
24390;BME280;12510;56.468;-3.004;2023-05-25T10:33:23;102162.47;;;25.72;52.64
24390;BME280;12510;56.468;-3.004;2023-05-25T10:35:50;102152.19;;;25.54;52.07
24390;BME280;12510;56.468;-3.004;2023-05-25T10:38:17;102145.03;;;26.30;51.35
24390;BME280;12510;56.468;-3.004;2023-05-25T10:40:45;102150.00;;;26.20;52.02
24390;BME280;12510;56.468;-3.004;2023-05-25T10:43:16;102133.06;;;26.86;47.63
24390;BME280;12510;56.468;-3.004;2023-05-25T10:45:43;102134.25;;;26.57;47.73
24390;BME280;12510;56.468;-3.004;2023-05-25T10:48:10;102149.25;;;26.93;50.45
24390;BME280;12510;56.468;-3.004;2023-05-25T10:50:36;102151.66;;;27.55;51.14
24390;BME280;12510;56.468;-3.004;2023-05-25T10:53:07;102170.31;;;24.02;55.44
24390;BME280;12510;56.468;-3.004;2023-05-25T10:55:42;102165.06;;;26.01;52.83
24390;BME280;12510;56.468;-3.004;2023-05-25T10:58:13;102195.97;;;26.60;60.67
24390;BME280;12510;56.468;-3.004;2023-05-25T11:00:41;102153.91;;;26.10;51.84
24390;BME280;12510;56.468;-3.004;2023-05-25T11:03:08;102180.59;;;25.22;56.36
24390;BME280;12510;56.468;-3.004;2023-05-25T11:05:37;102161.91;;;25.90;54.24
24390;BME280;12510;56.468;-3.004;2023-05-25T11:08:08;102149.25;;;25.42;52.36
24390;BME280;12510;56.468;-3.004;2023-05-25T11:13:35;102173.66;;;23.59;59.30
24390;BME280;12510;56.468;-3.004;2023-05-25T11:16:22;102174.78;;;24.32;60.49
24390;BME280;12510;56.468;-3.004;2023-05-25T11:19:01;102173.53;;;24.49;60.44
24390;BME280;12510;56.468;-3.004;2023-05-25T11:24:11;102194.13;;;22.92;68.54
24390;BME280;12510;56.468;-3.004;2023-05-25T11:26:54;102170.91;;;24.34;63.53
24390;BME280;12510;56.468;-3.004;2023-05-25T11:29:22;102154.97;;;24.76;59.45
24390;BME280;12510;56.468;-3.004;2023-05-25T11:31:52;102166.72;;;23.50;60.76
24390;BME280;12510;56.468;-3.004;2023-05-25T11:34:21;102155.19;;;23.41;62.88
24390;BME280;12510;56.468;-3.004;2023-05-25T11:36:53;102157.34;;;23.61;63.08
24390;BME280;12510;56.468;-3.004;2023-05-25T11:39:20;102152.09;;;24.19;61.64
24390;BME280;12510;56.468;-3.004;2023-05-25T11:41:55;102137.59;;;24.20;58.69
24390;BME280;12510;56.468;-3.004;2023-05-25T11:44:27;102145.53;;;23.17;62.05
24390;BME280;12510;56.468;-3.004;2023-05-25T11:46:55;102156.22;;;22.41;67.04
24390;BME280;12510;56.468;-3.004;2023-05-25T11:49:23;102157.16;;;22.25;67.33
24390;BME280;12510;56.468;-3.004;2023-05-25T11:51:51;102152.88;;;22.39;67.05
24390;BME280;12510;56.468;-3.004;2023-05-25T11:54:25;102151.09;;;22.54;67.02
24390;BME280;12510;56.468;-3.004;2023-05-25T11:56:54;102152.13;;;23.15;68.24
24390;BME280;12510;56.468;-3.004;2023-05-25T11:59:27;102134.53;;;23.57;62.17
24390;BME280;12510;56.468;-3.004;2023-05-25T12:01:58;102141.50;;;22.98;63.29
24390;BME280;12510;56.468;-3.004;2023-05-25T12:04:26;102141.47;;;23.21;64.82
24390;BME280;12510;56.468;-3.004;2023-05-25T12:07:00;102146.13;;;22.89;64.71
24390;BME280;12510;56.468;-3.004;2023-05-25T12:09:27;102159.53;;;22.20;69.43
24390;BME280;12510;56.468;-3.004;2023-05-25T12:11:53;102149.00;;;24.01;65.15
24390;BME280;12510;56.468;-3.004;2023-05-25T12:14:20;102141.22;;;23.31;65.48
24390;BME280;12510;56.468;-3.004;2023-05-25T12:16:47;102150.34;;;24.12;69.95
24390;BME280;12510;56.468;-3.004;2023-05-25T12:19:14;102193.19;;;24.50;85.65
24390;BME280;12510;56.468;-3.004;2023-05-25T12:21:41;102135.38;;;24.24;60.26
24390;BME280;12510;56.468;-3.004;2023-05-25T12:24:09;102134.91;;;23.69;60.73
24390;BME280;12510;56.468;-3.004;2023-05-25T12:26:51;102147.81;;;24.25;63.76
24390;BME280;12510;56.468;-3.004;2023-05-25T12:29:22;102138.41;;;23.99;61.36
24390;BME280;12510;56.468;-3.004;2023-05-25T12:31:50;102157.72;;;23.43;68.67
24390;BME280;12510;56.468;-3.004;2023-05-25T12:34:18;102159.13;;;23.01;65.69
24390;BME280;12510;56.468;-3.004;2023-05-25T12:36:47;102189.69;;;24.92;82.58
24390;BME280;12510;56.468;-3.004;2023-05-25T12:39:17;102163.75;;;23.60;68.10
24390;BME280;12510;56.468;-3.004;2023-05-25T12:41:48;102161.41;;;23.87;65.20
24390;BME280;12510;56.468;-3.004;2023-05-25T12:46:42;102155.13;;;23.95;65.37
24390;BME280;12510;56.468;-3.004;2023-05-25T12:49:28;102151.50;;;23.72;63.44
24390;BME280;12510;56.468;-3.004;2023-05-25T12:51:56;102155.66;;;23.30;65.46
24390;BME280;12510;56.468;-3.004;2023-05-25T12:57:07;102145.03;;;24.18;63.23
24390;BME280;12510;56.468;-3.004;2023-05-25T12:59:34;102208.13;;;24.52;95.87
24390;BME280;12510;56.468;-3.004;2023-05-25T13:02:02;102142.28;;;24.55;64.44